Terminal Aerodrome Forecast
Issued by NWS Twin Cities, MN

Home | Current Version | Previous Version | Text Only | Print | Product List | Glossary Off
Versions: 1 2 3 4 5 6 7 8 9 10 11 12 13 14 15 16 17 18 19 20 21 22 23 24 25 26

000
FTUS43 KMPX 121700
TAFMSP
TAF
KMSP 121738Z 1218/1324 30004KT P6SM VCTS SCT012CB BKN080
      TEMPO 1218/1222 2SM -SHRA BR BKN020
     FM122300 29006KT P6SM SCT050 BKN100
     FM130200 29004KT P6SM FEW100
     FM131600 30012G20KT P6SM FEW060=

USA.gov is the U.S. government's official web portal to all federal, state and local government web resources and services.